sensor_id;sensor_type;location;lat;lon;timestamp;temperature;humidity
39677;DHT22;27789;50.840;4.386;2022-09-27T00:01:58;11.50;99.90
39677;DHT22;27789;50.840;4.386;2022-09-27T00:04:25;11.60;99.90
39677;DHT22;27789;50.840;4.386;2022-09-27T00:06:50;11.60;99.90
39677;DHT22;27789;50.840;4.386;2022-09-27T00:09:16;11.60;99.90
39677;DHT22;27789;50.840;4.386;2022-09-27T00:11:42;11.50;99.90
39677;DHT22;27789;50.840;4.386;2022-09-27T00:14:07;11.50;99.90
39677;DHT22;27789;50.840;4.386;2022-09-27T00:16:34;11.50;99.90
39677;DHT22;27789;50.840;4.386;2022-09-27T00:19:04;11.60;99.90
39677;DHT22;27789;50.840;4.386;2022-09-27T00:21:30;11.60;99.90
39677;DHT22;27789;50.840;4.386;2022-09-27T00:23:56;11.50;99.90
39677;DHT22;27789;50.840;4.386;2022-09-27T00:26:22;11.50;99.90
39677;DHT22;27789;50.840;4.386;2022-09-27T00:28:47;11.50;99.90
39677;DHT22;27789;50.840;4.386;2022-09-27T00:31:16;11.50;99.90
39677;DHT22;27789;50.840;4.386;2022-09-27T00:33:44;11.60;99.90
39677;DHT22;27789;50.840;4.386;2022-09-27T00:36:10;11.50;99.90
39677;DHT22;27789;50.840;4.386;2022-09-27T00:38:35;11.50;99.90
39677;DHT22;27789;50.840;4.386;2022-09-27T00:41:00;11.50;99.90
39677;DHT22;27789;50.840;4.386;2022-09-27T00:43:33;11.50;99.90
39677;DHT22;27789;50.840;4.386;2022-09-27T00:46:06;11.50;99.90
39677;DHT22;27789;50.840;4.386;2022-09-27T00:48:32;11.50;99.90
39677;DHT22;27789;50.840;4.386;2022-09-27T00:51:00;11.50;99.90
39677;DHT22;27789;50.840;4.386;2022-09-27T00:53:30;11.50;99.90
39677;DHT22;27789;50.840;4.386;2022-09-27T00:55:58;11.50;99.90
39677;DHT22;27789;50.840;4.386;2022-09-27T00:58:29;11.50;99.90
39677;DHT22;27789;50.840;4.386;2022-09-27T01:00:56;11.50;99.90
39677;DHT22;27789;50.840;4.386;2022-09-27T01:03:33;11.50;99.90
39677;DHT22;27789;50.840;4.386;2022-09-27T01:06:00;11.50;99.90
39677;DHT22;27789;50.840;4.386;2022-09-27T01:08:26;11.60;99.90
39677;DHT22;27789;50.840;4.386;2022-09-27T01:10:55;11.50;99.90
39677;DHT22;27789;50.840;4.386;2022-09-27T01:13:34;11.50;99.90
39677;DHT22;27789;50.840;4.386;2022-09-27T01:18:38;11.50;99.90
39677;DHT22;27789;50.840;4.386;2022-09-27T01:26:28;11.50;99.90
39677;DHT22;27789;50.840;4.386;2022-09-27T01:28:57;11.50;99.90
39677;DHT22;27789;50.840;4.386;2022-09-27T01:44:10;11.40;99.90
39677;DHT22;27789;50.840;4.386;2022-09-27T01:47:00;11.50;99.90
39677;DHT22;27789;50.840;4.386;2022-09-27T01:49:31;11.50;99.90
39677;DHT22;27789;50.840;4.386;2022-09-27T01:51:59;11.50;99.90
39677;DHT22;27789;50.840;4.386;2022-09-27T01:54:28;11.40;99.90
39677;DHT22;27789;50.840;4.386;2022-09-27T01:56:55;11.40;99.90
39677;DHT22;27789;50.840;4.386;2022-09-27T01:59:23;11.40;99.90
39677;DHT22;27789;50.840;4.386;2022-09-27T02:01:53;11.40;99.90
39677;DHT22;27789;50.840;4.386;2022-09-27T02:04:23;11.40;99.90
39677;DHT22;27789;50.840;4.386;2022-09-27T02:06:49;11.40;99.90
39677;DHT22;27789;50.840;4.386;2022-09-27T02:09:18;11.40;99.90
39677;DHT22;27789;50.840;4.386;2022-09-27T02:11:45;11.30;99.90
39677;DHT22;27789;50.840;4.386;2022-09-27T02:24:35;11.30;99.90
39677;DHT22;27789;50.840;4.386;2022-09-27T02:27:05;11.30;99.90
39677;DHT22;27789;50.840;4.386;2022-09-27T02:29:38;11.30;99.90
39677;DHT22;27789;50.840;4.386;2022-09-27T02:32:05;11.30;99.90
39677;DHT22;27789;50.840;4.386;2022-09-27T02:34:31;11.30;99.90
39677;DHT22;27789;50.840;4.386;2022-09-27T02:36:58;11.20;99.90
39677;DHT22;27789;50.840;4.386;2022-09-27T02:39:24;11.20;99.90
39677;DHT22;27789;50.840;4.386;2022-09-27T02:41:49;11.20;99.90
39677;DHT22;27789;50.840;4.386;2022-09-27T02:44:16;11.10;99.90
39677;DHT22;27789;50.840;4.386;2022-09-27T02:52:02;11.10;99.90
39677;DHT22;27789;50.840;4.386;2022-09-27T03:02:27;10.80;99.90
39677;DHT22;27789;50.840;4.386;2022-09-27T03:04:59;10.80;99.90
39677;DHT22;27789;50.840;4.386;2022-09-27T03:07:25;10.90;99.90
39677;DHT22;27789;50.840;4.386;2022-09-27T03:09:51;10.90;99.90
39677;DHT22;27789;50.840;4.386;2022-09-27T03:12:17;11.00;99.90
39677;DHT22;27789;50.840;4.386;2022-09-27T03:14:55;11.00;99.90
39677;DHT22;27789;50.840;4.386;2022-09-27T03:17:21;11.00;99.90
39677;DHT22;27789;50.840;4.386;2022-09-27T03:19:47;11.00;99.90
39677;DHT22;27789;50.840;4.386;2022-09-27T03:22:12;11.00;99.90
39677;DHT22;27789;50.840;4.386;2022-09-27T03:24:38;11.00;99.90
39677;DHT22;27789;50.840;4.386;2022-09-27T03:27:03;11.10;99.90
39677;DHT22;27789;50.840;4.386;2022-09-27T03:29:29;11.10;99.90
39677;DHT22;27789;50.840;4.386;2022-09-27T03:31:54;11.10;99.90
39677;DHT22;27789;50.840;4.386;2022-09-27T03:34:20;11.20;99.90
39677;DHT22;27789;50.840;4.386;2022-09-27T03:36:46;11.10;99.90
39677;DHT22;27789;50.840;4.386;2022-09-27T03:39:11;11.10;99.90
39677;DHT22;27789;50.840;4.386;2022-09-27T03:41:37;11.10;99.90
39677;DHT22;27789;50.840;4.386;2022-09-27T03:44:02;11.10;99.90
39677;DHT22;27789;50.840;4.386;2022-09-27T03:46:28;11.10;99.90
39677;DHT22;27789;50.840;4.386;2022-09-27T03:48:54;11.10;99.90
39677;DHT22;27789;50.840;4.386;2022-09-27T03:51:19;11.10;99.90
39677;DHT22;27789;50.840;4.386;2022-09-27T03:53:45;11.10;99.90
39677;DHT22;27789;50.840;4.386;2022-09-27T03:56:11;11.00;99.90
39677;DHT22;27789;50.840;4.386;2022-09-27T03:58:36;11.10;99.90
39677;DHT22;27789;50.840;4.386;2022-09-27T04:01:02;11.10;99.90
39677;DHT22;27789;50.840;4.386;2022-09-27T04:03:27;11.10;99.90
39677;DHT22;27789;50.840;4.386;2022-09-27T04:05:53;11.10;99.90
39677;DHT22;27789;50.840;4.386;2022-09-27T04:08:19;11.00;99.90
39677;DHT22;27789;50.840;4.386;2022-09-27T04:10:46;11.00;99.90
39677;DHT22;27789;50.840;4.386;2022-09-27T04:13:12;10.90;99.90
39677;DHT22;27789;50.840;4.386;2022-09-27T04:15:37;10.90;99.90
39677;DHT22;27789;50.840;4.386;2022-09-27T04:18:03;10.90;99.90
39677;DHT22;27789;50.840;4.386;2022-09-27T04:20:29;10.80;99.90
39677;DHT22;27789;50.840;4.386;2022-09-27T04:22:54;10.70;99.90
39677;DHT22;27789;50.840;4.386;2022-09-27T04:25:20;10.80;99.90
39677;DHT22;27789;50.840;4.386;2022-09-27T04:27:46;10.80;99.90
39677;DHT22;27789;50.840;4.386;2022-09-27T04:30:12;10.70;99.90
39677;DHT22;27789;50.840;4.386;2022-09-27T04:32:41;10.70;99.90
39677;DHT22;27789;50.840;4.386;2022-09-27T04:35:08;10.80;99.90
39677;DHT22;27789;50.840;4.386;2022-09-27T04:37:44;10.70;99.90
39677;DHT22;27789;50.840;4.386;2022-09-27T04:40:10;10.70;99.90
39677;DHT22;27789;50.840;4.386;2022-09-27T04:42:36;10.70;99.90
39677;DHT22;27789;50.840;4.386;2022-09-27T04:45:01;10.80;99.90
39677;DHT22;27789;50.840;4.386;2022-09-27T04:47:27;10.80;99.90
39677;DHT22;27789;50.840;4.386;2022-09-27T04:49:53;10.90;99.90
39677;DHT22;27789;50.840;4.386;2022-09-27T04:52:18;10.90;99.90
39677;DHT22;27789;50.840;4.386;2022-09-27T04:54:44;10.80;99.90
39677;DHT22;27789;50.840;4.386;2022-09-27T04:57:09;10.90;99.90
39677;DHT22;27789;50.840;4.386;2022-09-27T04:59:36;10.90;99.90
39677;DHT22;27789;50.840;4.386;2022-09-27T05:02:01;10.90;99.90
39677;DHT22;27789;50.840;4.386;2022-09-27T05:04:27;10.90;99.90
39677;DHT22;27789;50.840;4.386;2022-09-27T05:06:52;10.90;99.90
39677;DHT22;27789;50.840;4.386;2022-09-27T05:09:18;10.90;99.90
39677;DHT22;27789;50.840;4.386;2022-09-27T05:11:44;10.90;99.90
39677;DHT22;27789;50.840;4.386;2022-09-27T05:14:10;10.90;99.90
39677;DHT22;27789;50.840;4.386;2022-09-27T05:16:36;10.80;99.90
39677;DHT22;27789;50.840;4.386;2022-09-27T05:19:02;10.80;99.90
39677;DHT22;27789;50.840;4.386;2022-09-27T05:21:27;10.60;99.90
39677;DHT22;27789;50.840;4.386;2022-09-27T05:23:53;10.60;99.90
39677;DHT22;27789;50.840;4.386;2022-09-27T05:26:18;10.80;99.90
39677;DHT22;27789;50.840;4.386;2022-09-27T05:28:45;10.70;99.90
39677;DHT22;27789;50.840;4.386;2022-09-27T05:31:11;10.70;99.90
39677;DHT22;27789;50.840;4.386;2022-09-27T05:33:37;10.60;99.90
39677;DHT22;27789;50.840;4.386;2022-09-27T05:36:03;10.60;99.90
39677;DHT22;27789;50.840;4.386;2022-09-27T05:38:28;10.60;99.90
39677;DHT22;27789;50.840;4.386;2022-09-27T05:40:54;10.60;99.90
39677;DHT22;27789;50.840;4.386;2022-09-27T05:43:19;10.60;99.90
39677;DHT22;27789;50.840;4.386;2022-09-27T05:45:45;10.60;99.90
39677;DHT22;27789;50.840;4.386;2022-09-27T05:48:11;10.60;99.90
39677;DHT22;27789;50.840;4.386;2022-09-27T05:50:39;10.60;99.90
39677;DHT22;27789;50.840;4.386;2022-09-27T05:53:04;10.60;99.90
39677;DHT22;27789;50.840;4.386;2022-09-27T05:55:30;10.60;99.90
39677;DHT22;27789;50.840;4.386;2022-09-27T06:00:33;10.60;99.90
39677;DHT22;27789;50.840;4.386;2022-09-27T06:03:03;10.70;99.90
39677;DHT22;27789;50.840;4.386;2022-09-27T06:05:30;10.50;99.90
39677;DHT22;27789;50.840;4.386;2022-09-27T06:08:00;10.50;99.90
39677;DHT22;27789;50.840;4.386;2022-09-27T06:10:26;10.50;99.90
39677;DHT22;27789;50.840;4.386;2022-09-27T06:12:51;10.40;99.90
39677;DHT22;27789;50.840;4.386;2022-09-27T06:15:17;10.30;99.90
39677;DHT22;27789;50.840;4.386;2022-09-27T06:17:42;10.40;99.90
39677;DHT22;27789;50.840;4.386;2022-09-27T06:20:08;10.40;99.90
39677;DHT22;27789;50.840;4.386;2022-09-27T06:22:34;10.20;99.90
39677;DHT22;27789;50.840;4.386;2022-09-27T06:25:00;10.20;99.90
39677;DHT22;27789;50.840;4.386;2022-09-27T06:27:28;10.30;99.90
39677;DHT22;27789;50.840;4.386;2022-09-27T06:29:54;10.30;99.90
39677;DHT22;27789;50.840;4.386;2022-09-27T06:32:20;10.20;99.90
39677;DHT22;27789;50.840;4.386;2022-09-27T06:34:46;10.20;99.90
39677;DHT22;27789;50.840;4.386;2022-09-27T06:37:11;10.20;99.90
39677;DHT22;27789;50.840;4.386;2022-09-27T06:39:37;10.20;99.90
39677;DHT22;27789;50.840;4.386;2022-09-27T06:42:02;10.30;99.90
39677;DHT22;27789;50.840;4.386;2022-09-27T06:44:27;10.40;99.90
39677;DHT22;27789;50.840;4.386;2022-09-27T06:46:53;10.40;99.90
39677;DHT22;27789;50.840;4.386;2022-09-27T06:49:20;10.40;99.90
39677;DHT22;27789;50.840;4.386;2022-09-27T06:51:47;10.40;99.90
39677;DHT22;27789;50.840;4.386;2022-09-27T06:54:13;10.30;99.90
39677;DHT22;27789;50.840;4.386;2022-09-27T06:56:38;10.50;99.90
39677;DHT22;27789;50.840;4.386;2022-09-27T06:59:04;10.50;99.90
39677;DHT22;27789;50.840;4.386;2022-09-27T07:01:41;10.60;99.90
39677;DHT22;27789;50.840;4.386;2022-09-27T07:04:07;10.60;99.90
39677;DHT22;27789;50.840;4.386;2022-09-27T07:06:33;10.70;99.90
39677;DHT22;27789;50.840;4.386;2022-09-27T07:08:59;10.70;99.90
39677;DHT22;27789;50.840;4.386;2022-09-27T07:11:25;10.80;99.90
39677;DHT22;27789;50.840;4.386;2022-09-27T07:13:50;10.80;99.90
39677;DHT22;27789;50.840;4.386;2022-09-27T07:16:16;10.80;99.90
39677;DHT22;27789;50.840;4.386;2022-09-27T07:18:43;10.90;99.90
39677;DHT22;27789;50.840;4.386;2022-09-27T07:21:09;10.80;99.90
39677;DHT22;27789;50.840;4.386;2022-09-27T07:23:35;10.80;99.90
39677;DHT22;27789;50.840;4.386;2022-09-27T07:26:02;10.90;99.90
39677;DHT22;27789;50.840;4.386;2022-09-27T07:28:28;10.90;99.90
39677;DHT22;27789;50.840;4.386;2022-09-27T07:30:54;10.80;99.90
39677;DHT22;27789;50.840;4.386;2022-09-27T07:33:20;10.90;99.90
39677;DHT22;27789;50.840;4.386;2022-09-27T07:35:46;10.90;99.90
39677;DHT22;27789;50.840;4.386;2022-09-27T07:38:11;10.90;99.90
39677;DHT22;27789;50.840;4.386;2022-09-27T07:40:38;11.00;99.90
39677;DHT22;27789;50.840;4.386;2022-09-27T07:43:05;10.90;99.90
39677;DHT22;27789;50.840;4.386;2022-09-27T07:45:32;10.90;99.90
39677;DHT22;27789;50.840;4.386;2022-09-27T07:47:57;10.90;99.90
39677;DHT22;27789;50.840;4.386;2022-09-27T07:50:23;10.90;99.90
39677;DHT22;27789;50.840;4.386;2022-09-27T07:52:49;10.90;99.90
39677;DHT22;27789;50.840;4.386;2022-09-27T07:55:15;10.90;99.90
39677;DHT22;27789;50.840;4.386;2022-09-27T07:57:41;10.90;99.90
39677;DHT22;27789;50.840;4.386;2022-09-27T08:00:10;10.80;99.90
39677;DHT22;27789;50.840;4.386;2022-09-27T08:02:36;10.90;99.90
39677;DHT22;27789;50.840;4.386;2022-09-27T08:05:02;10.90;99.90
39677;DHT22;27789;50.840;4.386;2022-09-27T08:07:28;10.80;99.90
39677;DHT22;27789;50.840;4.386;2022-09-27T08:09:54;10.90;99.90
39677;DHT22;27789;50.840;4.386;2022-09-27T08:12:20;10.90;99.90
39677;DHT22;27789;50.840;4.386;2022-09-27T08:14:46;11.10;99.90
39677;DHT22;27789;50.840;4.386;2022-09-27T08:17:11;11.20;99.90
39677;DHT22;27789;50.840;4.386;2022-09-27T08:19:37;11.30;99.90
39677;DHT22;27789;50.840;4.386;2022-09-27T08:22:04;11.30;99.90
39677;DHT22;27789;50.840;4.386;2022-09-27T08:24:29;11.40;99.90
39677;DHT22;27789;50.840;4.386;2022-09-27T08:26:55;11.40;99.90
39677;DHT22;27789;50.840;4.386;2022-09-27T08:29:20;11.40;99.90
39677;DHT22;27789;50.840;4.386;2022-09-27T08:31:46;11.50;99.90
39677;DHT22;27789;50.840;4.386;2022-09-27T08:34:11;11.50;99.90
39677;DHT22;27789;50.840;4.386;2022-09-27T08:36:36;11.50;99.90
39677;DHT22;27789;50.840;4.386;2022-09-27T08:39:03;11.50;99.90
39677;DHT22;27789;50.840;4.386;2022-09-27T08:41:36;11.40;99.90
39677;DHT22;27789;50.840;4.386;2022-09-27T08:44:06;11.40;99.90
39677;DHT22;27789;50.840;4.386;2022-09-27T08:46:38;11.30;99.90
39677;DHT22;27789;50.840;4.386;2022-09-27T08:49:09;11.40;99.90
39677;DHT22;27789;50.840;4.386;2022-09-27T08:51:36;11.40;99.90
39677;DHT22;27789;50.840;4.386;2022-09-27T08:54:05;11.40;99.90
39677;DHT22;27789;50.840;4.386;2022-09-27T08:56:32;11.40;99.90
39677;DHT22;27789;50.840;4.386;2022-09-27T08:59:00;11.40;99.90
39677;DHT22;27789;50.840;4.386;2022-09-27T09:01:28;11.50;99.90
39677;DHT22;27789;50.840;4.386;2022-09-27T09:03:54;11.40;99.90
39677;DHT22;27789;50.840;4.386;2022-09-27T09:06:22;11.40;99.90
39677;DHT22;27789;50.840;4.386;2022-09-27T09:11:30;11.60;99.90
39677;DHT22;27789;50.840;4.386;2022-09-27T09:21:45;11.30;99.90
39677;DHT22;27789;50.840;4.386;2022-09-27T09:36:47;11.30;99.90
39677;DHT22;27789;50.840;4.386;2022-09-27T09:39:19;11.40;99.90
39677;DHT22;27789;50.840;4.386;2022-09-27T09:41:52;11.50;99.90
39677;DHT22;27789;50.840;4.386;2022-09-27T09:44:28;11.70;99.90
39677;DHT22;27789;50.840;4.386;2022-09-27T09:46:56;11.70;99.90
39677;DHT22;27789;50.840;4.386;2022-09-27T09:49:27;11.80;99.90
39677;DHT22;27789;50.840;4.386;2022-09-27T09:59:44;12.00;99.90
39677;DHT22;27789;50.840;4.386;2022-09-27T10:04:47;12.20;99.90
39677;DHT22;27789;50.840;4.386;2022-09-27T10:07:13;12.50;99.90
39677;DHT22;27789;50.840;4.386;2022-09-27T10:09:39;13.10;99.90
39677;DHT22;27789;50.840;4.386;2022-09-27T10:12:04;13.60;99.90
39677;DHT22;27789;50.840;4.386;2022-09-27T10:14:30;14.00;99.90
39677;DHT22;27789;50.840;4.386;2022-09-27T10:16:57;14.70;99.90
39677;DHT22;27789;50.840;4.386;2022-09-27T10:19:26;14.90;99.90
39677;DHT22;27789;50.840;4.386;2022-09-27T10:21:53;14.70;99.90
39677;DHT22;27789;50.840;4.386;2022-09-27T10:24:22;14.40;99.90
39677;DHT22;27789;50.840;4.386;2022-09-27T10:26:49;14.30;99.90
39677;DHT22;27789;50.840;4.386;2022-09-27T10:31:45;14.00;99.90
39677;DHT22;27789;50.840;4.386;2022-09-27T10:37:00;13.80;99.90
39677;DHT22;27789;50.840;4.386;2022-09-27T10:39:26;13.80;99.90
39677;DHT22;27789;50.840;4.386;2022-09-27T10:41:52;13.80;99.90
39677;DHT22;27789;50.840;4.386;2022-09-27T10:44:19;13.80;99.90
39677;DHT22;27789;50.840;4.386;2022-09-27T10:46:46;13.90;99.90
39677;DHT22;27789;50.840;4.386;2022-09-27T10:49:17;13.90;99.90
39677;DHT22;27789;50.840;4.386;2022-09-27T10:51:44;14.00;99.90
39677;DHT22;27789;50.840;4.386;2022-09-27T10:56:53;14.40;99.90
39677;DHT22;27789;50.840;4.386;2022-09-27T10:59:19;14.80;99.90
39677;DHT22;27789;50.840;4.386;2022-09-27T11:01:45;15.60;99.90
39677;DHT22;27789;50.840;4.386;2022-09-27T11:04:18;16.50;99.90
39677;DHT22;27789;50.840;4.386;2022-09-27T11:06:44;17.80;99.90
39677;DHT22;27789;50.840;4.386;2022-09-27T11:11:48;17.70;99.90
39677;DHT22;27789;50.840;4.386;2022-09-27T11:14:21;17.90;99.90
39677;DHT22;27789;50.840;4.386;2022-09-27T11:16:55;17.50;99.90
39677;DHT22;27789;50.840;4.386;2022-09-27T11:47:47;15.00;99.90
39677;DHT22;27789;50.840;4.386;2022-09-27T11:57:58;18.10;99.20
39677;DHT22;27789;50.840;4.386;2022-09-27T12:03:06;16.40;99.90
39677;DHT22;27789;50.840;4.386;2022-09-27T12:08:10;15.00;99.90
39677;DHT22;27789;50.840;4.386;2022-09-27T12:10:38;14.70;99.90
39677;DHT22;27789;50.840;4.386;2022-09-27T12:13:05;14.60;99.90
39677;DHT22;27789;50.840;4.386;2022-09-27T12:15:34;14.90;99.90
39677;DHT22;27789;50.840;4.386;2022-09-27T12:20:33;16.20;99.90
39677;DHT22;27789;50.840;4.386;2022-09-27T12:23:01;18.20;99.90
39677;DHT22;27789;50.840;4.386;2022-09-27T12:25:37;19.90;96.40
39677;DHT22;27789;50.840;4.386;2022-09-27T12:30:30;21.00;92.80
39677;DHT22;27789;50.840;4.386;2022-09-27T12:35:35;21.90;90.60
39677;DHT22;27789;50.840;4.386;2022-09-27T12:38:09;22.40;89.00
39677;DHT22;27789;50.840;4.386;2022-09-27T12:40:40;23.00;88.00
39677;DHT22;27789;50.840;4.386;2022-09-27T12:43:08;22.80;85.60
39677;DHT22;27789;50.840;4.386;2022-09-27T12:48:14;19.60;90.80
39677;DHT22;27789;50.840;4.386;2022-09-27T12:50:42;18.40;92.60
39677;DHT22;27789;50.840;4.386;2022-09-27T12:53:16;17.90;94.00
39677;DHT22;27789;50.840;4.386;2022-09-27T13:01:06;16.50;98.20
39677;DHT22;27789;50.840;4.386;2022-09-27T13:11:28;15.60;99.90
39677;DHT22;27789;50.840;4.386;2022-09-27T13:13:55;15.90;99.90
39677;DHT22;27789;50.840;4.386;2022-09-27T13:16:21;15.70;99.90
39677;DHT22;27789;50.840;4.386;2022-09-27T13:21:13;15.40;99.90
39677;DHT22;27789;50.840;4.386;2022-09-27T13:23:58;16.20;99.90
39677;DHT22;27789;50.840;4.386;2022-09-27T13:29:01;17.10;99.00
39677;DHT22;27789;50.840;4.386;2022-09-27T13:34:11;17.30;99.00
39677;DHT22;27789;50.840;4.386;2022-09-27T13:36:49;16.90;98.70
39677;DHT22;27789;50.840;4.386;2022-09-27T13:39:16;16.70;98.00
39677;DHT22;27789;50.840;4.386;2022-09-27T13:46:51;15.90;99.90
39677;DHT22;27789;50.840;4.386;2022-09-27T13:49:19;15.80;99.90
39677;DHT22;27789;50.840;4.386;2022-09-27T13:52:15;15.90;99.90
39677;DHT22;27789;50.840;4.386;2022-09-27T13:54:37;15.60;99.90
39677;DHT22;27789;50.840;4.386;2022-09-27T13:57:03;15.50;99.90
39677;DHT22;27789;50.840;4.386;2022-09-27T13:59:32;15.50;99.90
39677;DHT22;27789;50.840;4.386;2022-09-27T14:02:11;15.60;99.90
39677;DHT22;27789;50.840;4.386;2022-09-27T14:04:41;15.70;99.90
39677;DHT22;27789;50.840;4.386;2022-09-27T14:07:09;15.90;99.90
39677;DHT22;27789;50.840;4.386;2022-09-27T14:09:37;15.80;99.90
39677;DHT22;27789;50.840;4.386;2022-09-27T14:12:06;15.70;99.90
39677;DHT22;27789;50.840;4.386;2022-09-27T14:14:34;15.80;99.90
39677;DHT22;27789;50.840;4.386;2022-09-27T14:17:00;15.90;99.90
39677;DHT22;27789;50.840;4.386;2022-09-27T14:19:26;16.00;99.90
39677;DHT22;27789;50.840;4.386;2022-09-27T14:21:52;15.70;99.90
39677;DHT22;27789;50.840;4.386;2022-09-27T14:26:43;15.40;99.90
39677;DHT22;27789;50.840;4.386;2022-09-27T14:31:44;15.60;99.90
39677;DHT22;27789;50.840;4.386;2022-09-27T14:34:12;15.70;99.90
39677;DHT22;27789;50.840;4.386;2022-09-27T14:36:37;15.60;99.90
39677;DHT22;27789;50.840;4.386;2022-09-27T14:39:15;15.60;99.90
39677;DHT22;27789;50.840;4.386;2022-09-27T14:41:44;15.50;99.90
39677;DHT22;27789;50.840;4.386;2022-09-27T14:44:18;15.40;99.90
39677;DHT22;27789;50.840;4.386;2022-09-27T14:46:45;15.40;99.90
39677;DHT22;27789;50.840;4.386;2022-09-27T14:49:20;15.20;99.90
39677;DHT22;27789;50.840;4.386;2022-09-27T14:51:54;15.10;99.90
39677;DHT22;27789;50.840;4.386;2022-09-27T14:54:24;14.90;99.90
39677;DHT22;27789;50.840;4.386;2022-09-27T14:56:51;14.60;99.90
39677;DHT22;27789;50.840;4.386;2022-09-27T14:59:24;14.50;99.90
39677;DHT22;27789;50.840;4.386;2022-09-27T15:01:52;14.20;99.90
39677;DHT22;27789;50.840;4.386;2022-09-27T15:04:18;14.70;99.90
39677;DHT22;27789;50.840;4.386;2022-09-27T15:06:44;14.00;99.90
39677;DHT22;27789;50.840;4.386;2022-09-27T15:09:14;13.90;99.90
39677;DHT22;27789;50.840;4.386;2022-09-27T15:11:40;13.90;99.90
39677;DHT22;27789;50.840;4.386;2022-09-27T15:14:15;13.90;99.90
39677;DHT22;27789;50.840;4.386;2022-09-27T15:16:41;13.90;99.90
39677;DHT22;27789;50.840;4.386;2022-09-27T15:21:38;13.80;99.90
39677;DHT22;27789;50.840;4.386;2022-09-27T15:24:04;13.80;99.90
39677;DHT22;27789;50.840;4.386;2022-09-27T15:29:15;14.10;99.90
39677;DHT22;27789;50.840;4.386;2022-09-27T15:31:41;14.70;99.90
39677;DHT22;27789;50.840;4.386;2022-09-27T15:34:14;15.00;99.90
39677;DHT22;27789;50.840;4.386;2022-09-27T15:39:20;15.00;99.90
39677;DHT22;27789;50.840;4.386;2022-09-27T15:47:02;14.60;99.90
39677;DHT22;27789;50.840;4.386;2022-09-27T15:49:31;14.40;99.90
39677;DHT22;27789;50.840;4.386;2022-09-27T15:52:00;14.30;99.90
39677;DHT22;27789;50.840;4.386;2022-09-27T15:54:27;14.20;99.90
39677;DHT22;27789;50.840;4.386;2022-09-27T15:56:55;14.20;99.90
39677;DHT22;27789;50.840;4.386;2022-09-27T15:59:22;14.10;99.90
39677;DHT22;27789;50.840;4.386;2022-09-27T16:01:48;14.00;99.90
39677;DHT22;27789;50.840;4.386;2022-09-27T16:04:15;14.00;99.90
39677;DHT22;27789;50.840;4.386;2022-09-27T16:06:40;14.00;99.90
39677;DHT22;27789;50.840;4.386;2022-09-27T16:09:15;13.90;99.90
39677;DHT22;27789;50.840;4.386;2022-09-27T16:11:42;13.90;99.90
39677;DHT22;27789;50.840;4.386;2022-09-27T16:14:07;13.90;99.90
39677;DHT22;27789;50.840;4.386;2022-09-27T16:16:33;13.80;99.90
39677;DHT22;27789;50.840;4.386;2022-09-27T16:18:58;13.90;99.90
39677;DHT22;27789;50.840;4.386;2022-09-27T16:21:24;14.00;99.90
39677;DHT22;27789;50.840;4.386;2022-09-27T16:23:50;14.00;99.90
39677;DHT22;27789;50.840;4.386;2022-09-27T16:26:15;15.00;99.90
39677;DHT22;27789;50.840;4.386;2022-09-27T16:28:41;14.10;99.90
39677;DHT22;27789;50.840;4.386;2022-09-27T16:31:06;14.00;99.90
39677;DHT22;27789;50.840;4.386;2022-09-27T16:33:34;14.00;99.90
39677;DHT22;27789;50.840;4.386;2022-09-27T16:36:04;15.80;99.90
39677;DHT22;27789;50.840;4.386;2022-09-27T16:38:31;14.00;99.90
39677;DHT22;27789;50.840;4.386;2022-09-27T16:41:00;14.20;99.90
39677;DHT22;27789;50.840;4.386;2022-09-27T16:43:26;13.90;99.90
39677;DHT22;27789;50.840;4.386;2022-09-27T16:45:52;13.80;99.90
39677;DHT22;27789;50.840;4.386;2022-09-27T16:48:18;13.70;99.90
39677;DHT22;27789;50.840;4.386;2022-09-27T16:50:43;13.80;99.90
39677;DHT22;27789;50.840;4.386;2022-09-27T16:53:20;14.90;99.90
39677;DHT22;27789;50.840;4.386;2022-09-27T16:55:45;13.80;99.90
39677;DHT22;27789;50.840;4.386;2022-09-27T16:58:11;13.70;99.90
39677;DHT22;27789;50.840;4.386;2022-09-27T17:00:36;13.70;99.90
39677;DHT22;27789;50.840;4.386;2022-09-27T17:03:04;14.30;99.90
39677;DHT22;27789;50.840;4.386;2022-09-27T17:05:30;13.90;99.90
39677;DHT22;27789;50.840;4.386;2022-09-27T17:07:56;13.70;99.90
39677;DHT22;27789;50.840;4.386;2022-09-27T17:10:21;13.60;99.90
39677;DHT22;27789;50.840;4.386;2022-09-27T17:12:47;13.60;99.90
39677;DHT22;27789;50.840;4.386;2022-09-27T17:15:13;13.60;99.90
39677;DHT22;27789;50.840;4.386;2022-09-27T17:17:39;13.60;99.90
39677;DHT22;27789;50.840;4.386;2022-09-27T17:20:04;13.50;99.90
39677;DHT22;27789;50.840;4.386;2022-09-27T17:22:30;13.50;99.90
39677;DHT22;27789;50.840;4.386;2022-09-27T17:24:55;13.50;99.90
39677;DHT22;27789;50.840;4.386;2022-09-27T17:27:22;13.50;99.90
39677;DHT22;27789;50.840;4.386;2022-09-27T17:29:49;13.80;99.90
39677;DHT22;27789;50.840;4.386;2022-09-27T17:32:14;13.50;99.90
39677;DHT22;27789;50.840;4.386;2022-09-27T17:34:40;13.50;99.90
39677;DHT22;27789;50.840;4.386;2022-09-27T17:37:08;13.50;99.90
39677;DHT22;27789;50.840;4.386;2022-09-27T17:39:35;13.60;99.90
39677;DHT22;27789;50.840;4.386;2022-09-27T17:42:00;13.70;99.90
39677;DHT22;27789;50.840;4.386;2022-09-27T17:44:26;13.60;99.90
39677;DHT22;27789;50.840;4.386;2022-09-27T17:46:52;13.60;99.90
39677;DHT22;27789;50.840;4.386;2022-09-27T17:49:38;13.60;99.90
39677;DHT22;27789;50.840;4.386;2022-09-27T17:52:14;13.60;99.90
39677;DHT22;27789;50.840;4.386;2022-09-27T17:54:39;13.60;99.90
39677;DHT22;27789;50.840;4.386;2022-09-27T17:57:05;13.50;99.90
39677;DHT22;27789;50.840;4.386;2022-09-27T17:59:31;13.40;99.90
39677;DHT22;27789;50.840;4.386;2022-09-27T18:01:56;13.40;99.90
39677;DHT22;27789;50.840;4.386;2022-09-27T18:04:22;13.40;99.90
39677;DHT22;27789;50.840;4.386;2022-09-27T18:06:48;13.30;99.90
39677;DHT22;27789;50.840;4.386;2022-09-27T18:09:14;13.20;99.90
39677;DHT22;27789;50.840;4.386;2022-09-27T18:11:40;13.20;99.90
39677;DHT22;27789;50.840;4.386;2022-09-27T18:14:06;13.10;99.90
39677;DHT22;27789;50.840;4.386;2022-09-27T18:16:36;13.00;99.90
39677;DHT22;27789;50.840;4.386;2022-09-27T18:19:04;12.90;99.90
39677;DHT22;27789;50.840;4.386;2022-09-27T18:21:29;12.80;99.90
39677;DHT22;27789;50.840;4.386;2022-09-27T18:23:56;12.60;99.90
39677;DHT22;27789;50.840;4.386;2022-09-27T18:26:22;12.60;99.90
39677;DHT22;27789;50.840;4.386;2022-09-27T18:28:50;13.90;99.90
39677;DHT22;27789;50.840;4.386;2022-09-27T18:31:16;12.40;99.90
39677;DHT22;27789;50.840;4.386;2022-09-27T18:33:42;12.50;99.90
39677;DHT22;27789;50.840;4.386;2022-09-27T18:36:09;12.30;99.90
39677;DHT22;27789;50.840;4.386;2022-09-27T18:38:35;13.30;99.90